Time;durP1;ratioP1;P1;durP2;ratioP2;P2;SDS_P1;SDS_P2;PMS_P1;PMS_P2;Temp;Humidity;BMP_temperature;BMP_pressure;BME280_temperature;BME280_humidity;BME280_pressure;Samples;Min_cycle;Max_cycle;Signal;HPM_P1;HPM_P2
2023/09/18 00:00:14;;;;;;;;;1.00;1.00;;;;;21.94;84.22;100201.28;6218028;22;45338;-74
2023/09/18 00:02:39;;;;;;;;;2.75;2.50;;;;;21.94;84.63;100204.00;6218801;22;47561;-74
2023/09/18 00:05:05;;;;;;;;;1.00;1.00;;;;;21.97;84.31;100215.47;6216711;22;45281;-75
2023/09/18 00:07:30;;;;;;;;;2.50;2.50;;;;;21.84;84.13;100203.97;6218869;22;45310;-75
2023/09/18 00:09:56;;;;;;;;;2.50;2.50;;;;;21.80;84.81;100203.38;6217692;22;45239;-74
2023/09/18 00:12:21;;;;;;;;;3.25;3.00;;;;;21.84;84.16;100210.25;6218160;22;47070;-74
2023/09/18 00:14:50;;;;;;;;;1.50;1.50;;;;;21.89;84.23;100218.00;6218122;22;45255;-74
2023/09/18 00:17:16;;;;;;;;;2.25;2.00;;;;;21.92;83.98;100228.59;6244248;22;45450;-74
2023/09/18 00:19:42;;;;;;;;;2.00;2.00;;;;;21.72;84.58;100200.47;6246188;22;45490;-74
2023/09/18 00:22:08;;;;;;;;;1.75;1.25;;;;;21.68;84.34;100199.00;6246244;22;45285;-75
2023/09/18 00:24:33;;;;;;;;;5.25;3.00;;;;;21.59;83.69;100172.66;6246111;22;45215;-74
2023/09/18 00:26:59;;;;;;;;;1.00;1.00;;;;;21.73;84.53;100202.16;6245979;22;45316;-74
2023/09/18 00:29:24;;;;;;;;;1.75;1.00;;;;;21.73;84.03;100210.31;6218152;22;45566;-74
2023/09/18 00:31:50;;;;;;;;;2.00;2.00;;;;;21.96;84.04;100242.75;6246065;22;46094;-74
2023/09/18 00:34:15;;;;;;;;;4.00;2.25;;;;;21.83;84.08;100222.13;6217849;22;45428;-74
2023/09/18 00:36:41;;;;;;;;;2.00;2.00;;;;;21.91;84.11;100231.44;6246391;22;45241;-74
2023/09/18 00:39:06;;;;;;;;;4.25;2.75;;;;;21.84;83.79;100210.25;6246398;22;45425;-74
2023/09/18 00:41:31;;;;;;;;;2.25;1.00;;;;;21.80;83.93;100202.50;6218020;22;47106;-74
2023/09/18 00:43:57;;;;;;;;;3.50;2.00;;;;;21.95;83.51;100230.16;6244634;22;45236;-74
2023/09/18 00:46:23;;;;;;;;;2.50;2.00;;;;;21.70;83.29;100196.16;6218630;22;45500;-74
2023/09/18 00:48:49;;;;;;;;;3.50;3.00;;;;;21.63;83.84;100184.97;6243639;22;45315;-74
2023/09/18 00:51:16;;;;;;;;;2.00;2.00;;;;;21.74;83.72;100209.34;6245816;22;45396;-74
2023/09/18 00:53:48;;;;;;;;;2.00;2.00;;;;;21.76;83.88;100207.34;6245659;22;45314;-74
2023/09/18 00:56:13;;;;;;;;;1.00;1.00;;;;;21.69;83.79;100197.16;6245090;22;45264;-74
2023/09/18 00:58:40;;;;;;;;;3.75;3.00;;;;;21.82;83.19;100231.25;6218390;22;45438;-74
2023/09/18 01:01:05;;;;;;;;;3.00;3.00;;;;;21.59;83.25;100200.69;6245787;22;45710;-74
2023/09/18 01:03:30;;;;;;;;;1.50;1.00;;;;;21.57;83.26;100204.53;6217682;22;45404;-74
2023/09/18 01:05:56;;;;;;;;;2.00;2.00;;;;;21.85;83.47;100249.13;6218577;22;45324;-74
2023/09/18 01:08:22;;;;;;;;;1.00;1.00;;;;;21.57;83.29;100213.53;6246057;22;45398;-74
2023/09/18 01:10:57;;;;;;;;;3.00;1.75;;;;;21.49;83.13;100215.19;6217957;22;47630;-74
2023/09/18 01:13:29;;;;;;;;;2.50;1.25;;;;;21.51;83.32;100224.06;6244973;22;45257;-74
2023/09/18 01:16:02;;;;;;;;;2.00;1.50;;;;;21.65;83.42;100251.75;6245922;22;45390;-74
2023/09/18 01:18:27;;;;;;;;;1.00;1.00;;;;;21.61;83.53;100247.56;6245331;22;45392;-74
2023/09/18 01:20:53;;;;;;;;;1.00;1.00;;;;;21.36;83.29;100201.78;6218745;22;46232;-74
2023/09/18 01:23:18;;;;;;;;;1.00;1.00;;;;;21.47;83.04;100218.03;6219157;22;45355;-74
2023/09/18 01:25:43;;;;;;;;;2.00;2.00;;;;;21.58;83.32;100246.97;6247221;22;45454;-74
2023/09/18 01:28:09;;;;;;;;;0.50;0.50;;;;;21.31;83.24;100207.59;6247370;22;45548;-74
2023/09/18 01:30:34;;;;;;;;;1.00;1.00;;;;;21.32;83.21;100214.75;6247093;22;45311;-74
2023/09/18 01:33:02;;;;;;;;;2.25;1.00;;;;;21.23;83.47;100197.44;6246445;22;45303;-74
2023/09/18 01:35:29;;;;;;;;;1.00;1.00;;;;;21.34;83.20;100220.06;6219833;22;45398;-74
2023/09/18 01:37:59;;;;;;;;;1.75;1.75;;;;;21.08;83.32;100185.16;6247148;22;45455;-73
2023/09/18 01:40:26;;;;;;;;;1.00;1.00;;;;;21.22;83.20;100211.97;6219206;22;47132;-74
2023/09/18 01:42:52;;;;;;;;;3.00;2.00;;;;;21.22;83.10;100216.56;6246826;22;45426;-74
2023/09/18 01:45:17;;;;;;;;;1.00;1.00;;;;;21.21;83.37;100207.53;6219590;22;45448;-73
2023/09/18 01:47:43;;;;;;;;;2.00;2.00;;;;;21.15;83.17;100194.50;6247133;22;45227;-74
2023/09/18 01:50:09;;;;;;;;;1.00;1.00;;;;;21.20;83.39;100199.50;6218225;22;46698;-74
2023/09/18 01:52:35;;;;;;;;;0.00;0.00;;;;;21.20;83.37;100202.22;6247060;22;45424;-75
2023/09/18 01:55:01;;;;;;;;;0.25;0.25;;;;;21.17;83.57;100206.09;6243484;22;45217;-74
2023/09/18 01:57:26;;;;;;;;;1.00;1.00;;;;;21.17;83.43;100208.78;6247331;22;45432;-74
2023/09/18 01:59:51;;;;;;;;;2.75;1.00;;;;;21.38;83.39;100235.94;6219294;22;48071;-74
2023/09/18 02:02:17;;;;;;;;;1.75;1.75;;;;;21.14;83.37;100189.19;6219309;22;45237;-73
2023/09/18 02:04:42;;;;;;;;;1.00;1.00;;;;;21.11;83.20;100182.16;6247224;22;45717;-74
2023/09/18 02:07:07;;;;;;;;;1.25;1.25;;;;;21.16;83.20;100198.06;6219384;22;45568;-73
2023/09/18 02:09:33;;;;;;;;;3.50;2.00;;;;;21.09;83.36;100193.16;6219003;22;47165;-74
2023/09/18 02:11:58;;;;;;;;;0.00;0.00;;;;;21.34;83.50;100239.91;6218857;22;45327;-74
2023/09/18 02:14:24;;;;;;;;;1.00;1.00;;;;;21.07;83.38;100205.16;6218875;22;45328;-73
2023/09/18 02:16:49;;;;;;;;;1.75;1.75;;;;;21.26;83.55;100231.56;6219198;22;45288;-74
2023/09/18 02:19:16;;;;;;;;;2.50;1.50;;;;;21.12;83.05;100219.19;6218873;22;46432;-74
2023/09/18 02:21:42;;;;;;;;;2.75;1.25;;;;;21.28;83.78;100245.88;6247000;22;45492;-74
2023/09/18 02:24:07;;;;;;;;;0.75;0.75;;;;;20.98;83.46;100198.66;6219031;22;45455;-74
2023/09/18 02:26:33;;;;;;;;;1.00;1.00;;;;;21.19;83.11;100238.53;6246764;22;45553;-73
2023/09/18 02:29:00;;;;;;;;;1.00;1.00;;;;;21.18;83.33;100239.50;6244487;22;47176;-73
2023/09/18 02:31:25;;;;;;;;;0.50;0.50;;;;;21.05;83.49;100201.72;6245626;22;45495;-74
2023/09/18 02:33:51;;;;;;;;;2.00;2.00;;;;;21.12;83.79;100224.63;6217025;22;45213;-74
2023/09/18 02:36:16;;;;;;;;;2.75;2.00;;;;;21.10;83.32;100222.03;6245925;22;45304;-73
2023/09/18 02:38:43;;;;;;;;;3.75;1.00;;;;;21.17;84.11;100244.06;6218934;22;48335;-74
2023/09/18 02:41:08;;;;;;;;;1.25;1.25;;;;;21.22;83.54;100255.41;6219313;22;45345;-74
2023/09/18 02:43:34;;;;;;;;;1.75;1.75;;;;;21.03;83.73;100234.41;6246566;22;45412;-74
2023/09/18 02:45:59;;;;;;;;;3.00;3.00;;;;;20.91;83.55;100205.56;6219356;22;45741;-74
2023/09/18 02:48:24;;;;;;;;;1.00;1.00;;;;;21.01;83.53;100228.22;6246874;22;45330;-74
2023/09/18 02:50:50;;;;;;;;;2.00;2.00;;;;;21.00;84.19;100231.94;6247024;22;45397;-74
2023/09/18 02:53:23;;;;;;;;;1.00;1.00;;;;;21.15;84.02;100269.59;6218515;22;45337;-74
2023/09/18 02:55:54;;;;;;;;;2.00;2.00;;;;;20.96;83.87;100244.03;6245981;22;45402;-73
2023/09/18 02:58:20;;;;;;;;;3.00;3.00;;;;;20.95;84.25;100236.91;6218051;22;46810;-74
2023/09/18 03:00:48;;;;;;;;;2.25;2.00;;;;;21.14;84.46;100263.31;6246594;22;45493;-74
2023/09/18 03:03:14;;;;;;;;;2.00;2.00;;;;;20.90;84.73;100215.56;6218560;22;45345;-74
2023/09/18 03:05:40;;;;;;;;;1.75;1.75;;;;;20.98;84.51;100220.38;6244761;22;45407;-74
2023/09/18 03:08:06;;;;;;;;;1.00;1.00;;;;;20.98;84.45;100224.91;6246628;22;45755;-74
2023/09/18 03:10:37;;;;;;;;;2.25;1.75;;;;;21.15;84.41;100234.31;6246438;22;45242;-74
2023/09/18 03:13:03;;;;;;;;;1.75;1.75;;;;;21.15;84.04;100228.91;6218398;22;45408;-74
2023/09/18 03:15:30;;;;;;;;;1.75;1.75;;;;;21.02;83.92;100202.81;6246486;22;45456;-74
2023/09/18 03:17:56;;;;;;;;;2.25;2.00;;;;;20.98;83.69;100201.38;6246912;22;46032;-74
2023/09/18 03:20:26;;;;;;;;;2.00;2.00;;;;;20.95;83.82;100196.19;6219305;22;45391;-74
2023/09/18 03:22:52;;;;;;;;;1.00;1.00;;;;;20.94;83.90;100188.19;6244177;22;45253;-74
2023/09/18 03:25:17;;;;;;;;;2.50;2.50;;;;;20.92;83.89;100189.16;6218349;22;45423;-73
2023/09/18 03:27:43;;;;;;;;;2.00;2.00;;;;;21.16;84.37;100233.34;6243523;22;47658;-74
2023/09/18 03:30:09;;;;;;;;;4.00;2.25;;;;;20.98;83.74;100201.38;6219003;22;45416;-74
2023/09/18 03:32:35;;;;;;;;;2.25;2.25;;;;;20.97;84.07;100196.94;6246582;22;45390;-74
2023/09/18 03:35:01;;;;;;;;;1.50;1.50;;;;;20.93;84.35;100198.16;6219053;22;45714;-74
2023/09/18 03:37:27;;;;;;;;;3.75;3.00;;;;;20.94;84.24;100205.31;6218849;22;47706;-74
2023/09/18 03:39:52;;;;;;;;;2.75;2.00;;;;;20.94;84.11;100202.59;6218365;22;45574;-73
2023/09/18 03:42:17;;;;;;;;;2.00;2.00;;;;;20.88;84.25;100190.44;6218936;22;45296;-74
2023/09/18 03:44:43;;;;;;;;;3.00;2.00;;;;;20.95;84.38;100201.63;6217863;22;45737;-74
2023/09/18 03:47:08;;;;;;;;;2.00;1.75;;;;;20.90;84.24;100202.00;6218875;22;47102;-74
2023/09/18 03:49:33;;;;;;;;;1.75;1.75;;;;;20.78;84.46;100177.75;6246727;22;45196;-74
2023/09/18 03:51:59;;;;;;;;;0.00;0.00;;;;;20.78;84.42;100177.75;6246876;22;45193;-74
2023/09/18 03:54:24;;;;;;;;;3.00;2.00;;;;;20.77;84.52;100176.06;6245594;22;45157;-74
2023/09/18 03:56:49;;;;;;;;;3.00;2.00;;;;;20.87;84.28;100193.28;6245941;22;46125;-74
2023/09/18 03:59:14;;;;;;;;;4.00;3.00;;;;;20.78;84.41;100177.75;6218392;22;45272;-74
2023/09/18 04:01:40;;;;;;;;;1.25;1.25;;;;;20.75;84.27;100170.75;6246054;22;45167;-74
2023/09/18 04:04:05;;;;;;;;;3.00;3.00;;;;;20.82;84.70;100184.66;6217339;22;45563;-74
2023/09/18 04:06:41;;;;;;;;;2.00;2.00;;;;;20.90;84.46;100193.88;6244074;22;47406;-74
2023/09/18 04:09:06;;;;;;;;;2.00;2.00;;;;;20.78;84.24;100175.06;6246181;22;45450;-74
2023/09/18 04:11:32;;;;;;;;;2.75;2.75;;;;;20.77;84.81;100173.34;6246207;22;45269;-74
2023/09/18 04:14:03;;;;;;;;;2.50;2.50;;;;;20.84;84.66;100188.94;6246109;22;45434;-74
2023/09/18 04:16:30;;;;;;;;;2.75;2.75;;;;;21.02;84.54;100232.66;6246294;22;45244;-74
2023/09/18 04:18:56;;;;;;;;;2.00;2.00;;;;;20.75;84.74;100184.31;6243620;22;45706;-74
2023/09/18 04:21:21;;;;;;;;;4.75;2.25;;;;;21.04;84.24;100233.38;6246450;22;45302;-74
2023/09/18 04:23:47;;;;;;;;;3.00;2.75;;;;;21.00;84.61;100214.78;6217765;22;45299;-74
2023/09/18 04:26:15;;;;;;;;;3.75;2.50;;;;;20.81;84.54;100185.66;6218320;22;47227;-74
2023/09/18 04:28:41;;;;;;;;;4.00;4.00;;;;;20.94;84.81;100189.03;6245788;22;45322;-74
2023/09/18 04:31:06;;;;;;;;;2.25;2.25;;;;;20.71;84.82;100162.03;6218022;22;45286;-74
2023/09/18 04:33:31;;;;;;;;;3.00;2.75;;;;;21.09;84.67;100214.00;6245807;22;45337;-74
2023/09/18 04:35:57;;;;;;;;;3.00;3.00;;;;;21.02;84.71;100210.97;6217824;22;46559;-74
2023/09/18 04:38:22;;;;;;;;;3.75;2.25;;;;;20.76;84.90;100167.03;6244286;22;45461;-74
2023/09/18 04:40:47;;;;;;;;;3.00;3.00;;;;;20.84;84.65;100174.53;6245932;22;45185;-74
2023/09/18 04:43:13;;;;;;;;;2.75;2.25;;;;;21.05;84.66;100210.69;6218289;22;45526;-74
2023/09/18 04:45:38;;;;;;;;;3.00;3.00;;;;;20.88;84.81;100182.28;6245644;22;46059;-74
2023/09/18 04:48:05;;;;;;;;;3.00;2.50;;;;;21.05;84.76;100199.84;6244011;22;45255;-74
2023/09/18 04:50:31;;;;;;;;;2.00;2.00;;;;;20.85;84.53;100174.41;6246342;22;45189;-74
2023/09/18 04:52:57;;;;;;;;;2.75;2.75;;;;;20.84;84.63;100186.25;6245672;22;45474;-74
2023/09/18 04:55:23;;;;;;;;;2.50;2.50;;;;;20.97;84.76;100199.63;6245703;22;45453;-74
2023/09/18 04:57:48;;;;;;;;;4.00;3.00;;;;;21.02;84.73;100210.97;6245407;22;45365;-74
2023/09/18 05:00:14;;;;;;;;;2.50;2.50;;;;;20.87;84.77;100204.13;6247573;22;45336;-74
2023/09/18 05:02:40;;;;;;;;;3.00;2.25;;;;;20.84;84.94;100177.25;6246908;22;45347;-74
2023/09/18 05:05:08;;;;;;;;;3.75;3.75;;;;;20.87;84.44;100187.84;6219271;22;47134;-74
2023/09/18 05:07:34;;;;;;;;;3.00;3.00;;;;;20.85;84.80;100187.97;6246889;22;45400;-74
2023/09/18 05:09:59;;;;;;;;;5.25;3.00;;;;;20.82;84.99;100198.22;6245017;22;45310;-74
2023/09/18 05:12:25;;;;;;;;;4.00;4.00;;;;;21.05;85.18;100226.13;6246954;22;45323;-74
2023/09/18 05:14:51;;;;;;;;;3.00;3.00;;;;;21.04;84.79;100232.53;6246476;22;46204;-74
2023/09/18 05:17:17;;;;;;;;;3.25;3.25;;;;;21.05;85.07;100224.28;6219756;22;45333;-74
2023/09/18 05:19:43;;;;;;;;;5.25;4.00;;;;;20.75;84.76;100169.88;6219725;22;45526;-74
2023/09/18 05:22:12;;;;;;;;;4.00;2.25;;;;;20.79;84.67;100168.66;6246346;22;45388;-75
2023/09/18 05:24:38;;;;;;;;;3.00;3.00;;;;;20.90;84.82;100193.88;6246907;22;45367;-74
2023/09/18 05:27:06;;;;;;;;;3.50;3.00;;;;;20.79;84.44;100172.22;6244956;22;45295;-75
2023/09/18 05:29:31;;;;;;;;;3.00;3.00;;;;;20.85;84.63;100187.97;6247216;22;45311;-74
2023/09/18 05:31:57;;;;;;;;;3.25;3.00;;;;;20.82;84.36;100185.50;6219164;22;45610;-74
2023/09/18 05:34:22;;;;;;;;;2.50;2.50;;;;;20.96;85.21;100225.03;6243814;22;47675;-74
2023/09/18 05:36:48;;;;;;;;;4.25;4.25;;;;;;;;6219327;22;45312;-74
2023/09/18 05:39:13;;;;;;;;;3.25;2.50;;;;;21.05;85.04;100228.84;6247321;22;45452;-74
2023/09/18 05:41:39;;;;;;;;;6.50;4.75;;;;;20.89;84.25;100196.72;6246620;22;45334;-74
2023/09/18 05:44:07;;;;;;;;;3.50;3.00;;;;;20.84;84.59;100188.94;6218775;22;47003;-74
2023/09/18 05:46:35;;;;;;;;;4.25;3.25;;;;;21.00;84.59;100225.63;6219113;22;45804;-74
2023/09/18 05:49:00;;;;;;;;;3.25;3.00;;;;;20.67;85.06;100156.97;6245449;22;45320;-74
2023/09/18 05:51:26;;;;;;;;;2.50;2.50;;;;;20.61;85.01;100158.31;6245107;22;45260;-74
2023/09/18 05:53:51;;;;;;;;;3.50;3.50;;;;;20.82;84.86;100185.50;6245424;22;45766;-75
2023/09/18 05:56:17;;;;;;;;;3.50;3.50;;;;;20.84;84.67;100199.81;6218298;22;45317;-73
2023/09/18 05:58:43;;;;;;;;;7.00;4.75;;;;;20.85;84.70;100204.25;6247034;22;45378;-74
2023/09/18 06:01:08;;;;;;;;;4.50;4.50;;;;;20.84;85.27;100198.94;6216693;22;45525;-73
2023/09/18 06:03:35;;;;;;;;;6.75;5.00;;;;;20.84;84.63;100207.09;6245700;22;45331;-72
2023/09/18 06:06:05;;;;;;;;;4.75;3.25;;;;;20.91;84.65;100222.72;6243752;22;45378;-72
2023/09/18 06:08:31;;;;;;;;;4.00;3.00;;;;;20.80;85.23;100198.34;6244597;22;45260;-73
2023/09/18 06:10:57;;;;;;;;;4.25;4.00;;;;;20.84;84.73;100207.94;6246577;22;45280;-74
2023/09/18 06:13:25;;;;;;;;;4.75;4.75;;;;;20.79;84.83;100210.19;6244442;22;46089;-73
2023/09/18 06:15:52;;;;;;;;;2.50;2.50;;;;;20.94;84.89;100237.03;6245951;22;45376;-73
2023/09/18 06:18:20;;;;;;;;;4.25;3.50;;;;;20.89;85.07;100227.41;6245943;22;45736;-73
2023/09/18 06:20:45;;;;;;;;;2.50;1.50;;;;;20.82;85.10;100222.63;6219166;22;45441;-73
2023/09/18 06:23:11;;;;;;;;;5.25;4.50;;;;;20.87;85.23;100233.97;6217718;22;46813;-73
2023/09/18 06:25:37;;;;;;;;;6.25;5.00;;;;;21.08;85.31;100264.72;6217972;22;45290;-73
2023/09/18 06:28:03;;;;;;;;;6.25;5.25;;;;;20.99;85.49;100260.06;6244996;22;45446;-73
2023/09/18 06:30:30;;;;;;;;;5.00;5.00;;;;;20.89;84.98;100251.81;6246638;22;45498;-72
2023/09/18 06:32:56;;;;;;;;;5.75;5.00;;;;;20.83;85.23;100260.50;6218588;22;46946;-72
2023/09/18 06:35:21;;;;;;;;;6.00;5.75;;;;;20.79;85.00;100252.72;6245827;22;45386;-72
2023/09/18 06:37:47;;;;;;;;;8.00;5.75;;;;;20.78;84.79;100232.00;6246633;22;45341;-72
2023/09/18 06:40:13;;;;;;;;;7.00;6.50;;;;;20.85;84.95;100234.09;6246392;22;45453;-72
2023/09/18 06:42:39;;;;;;;;;7.75;5.25;;;;;20.77;84.61;100219.44;6244996;22;46071;-73
2023/09/18 06:45:06;;;;;;;;;6.25;6.25;;;;;20.94;85.31;100237.88;6243997;22;45620;-73
2023/09/18 06:47:32;;;;;;;;;7.50;6.00;;;;;21.09;84.88;100258.28;6246069;22;45282;-72
2023/09/18 06:49:58;;;;;;;;;6.75;6.75;;;;;21.05;85.31;100256.84;6246103;22;45327;-71
2023/09/18 06:52:24;;;;;;;;;8.50;6.00;;;;;20.93;84.72;100233.44;6244550;22;46419;-71
2023/09/18 06:54:50;;;;;;;;;5.25;4.75;;;;;20.82;85.16;100212.63;6242713;22;45374;-71
2023/09/18 06:57:15;;;;;;;;;4.50;4.50;;;;;21.09;85.24;100258.28;6245351;22;45371;-72
2023/09/18 06:59:41;;;;;;;;;4.75;3.00;;;;;21.13;84.63;100263.47;6246036;22;45418;-72
2023/09/18 07:02:06;;;;;;;;;5.75;5.75;;;;;20.90;85.21;100221.00;6245774;22;45303;-73
2023/09/18 07:04:31;;;;;;;;;7.00;5.75;;;;;21.11;84.74;100252.72;6238505;22;45521;-76
2023/09/18 07:06:57;;;;;;;;;5.25;5.25;;;;;20.86;84.80;100219.50;6236600;22;45320;-75
2023/09/18 07:09:25;;;;;;;;;7.50;6.75;;;;;21.03;85.04;100255.22;6243527;22;45386;-76
2023/09/18 07:11:51;;;;;;;;;7.00;7.00;;;;;20.98;85.42;100243.91;6242481;22;46128;-72
2023/09/18 07:14:16;;;;;;;;;6.25;5.50;;;;;20.94;85.20;100247.88;6242535;22;45348;-76
2023/09/18 07:16:42;;;;;;;;;6.75;6.00;;;;;20.97;85.17;100247.63;6218475;22;45206;-76
2023/09/18 07:19:11;;;;;;;;;6.75;6.50;;;;;20.94;85.33;100237.88;6244928;22;45227;-73
2023/09/18 07:21:37;;;;;;;;;7.50;7.50;;;;;21.04;85.25;100255.09;6244158;22;45498;-76
2023/09/18 07:24:03;;;;;;;;;6.25;6.25;;;;;21.07;84.82;100271.13;6244985;22;45332;-71
2023/09/18 07:26:29;;;;;;;;;8.75;7.75;;;;;21.18;85.34;100291.91;6245415;22;45492;-70
2023/09/18 07:28:54;;;;;;;;;9.25;7.25;;;;;20.96;85.51;100252.16;6244672;22;45505;-70
2023/09/18 07:31:22;;;;;;;;;7.00;6.00;;;;;20.98;85.26;100257.47;6244060;22;46006;-67
2023/09/18 07:33:48;;;;;;;;;8.00;8.00;;;;;21.24;84.69;100296.00;6245651;22;45538;-67
2023/09/18 07:36:16;;;;;;;;;10.00;7.25;;;;;20.91;85.34;100249.88;6244317;22;45614;-67
2023/09/18 07:38:43;;;;;;;;;7.75;6.50;;;;;21.12;85.07;100272.56;6243859;22;45366;-66
2023/09/18 07:41:16;;;;;;;;;7.25;5.75;;;;;21.01;85.19;100252.63;6243918;22;45385;-66
2023/09/18 07:43:44;;;;;;;;;7.00;7.00;;;;;21.04;84.61;100248.81;6217071;22;45304;-66
2023/09/18 07:46:09;;;;;;;;;8.50;6.75;;;;;21.20;84.99;100278.22;6246020;22;45301;-67
2023/09/18 07:48:37;;;;;;;;;7.75;7.75;;;;;21.01;85.36;100249.06;6217092;22;45383;-67
2023/09/18 07:51:03;;;;;;;;;7.25;7.25;;;;;21.38;84.58;100302.94;6245322;22;45458;-66
2023/09/18 07:53:35;;;;;;;;;8.75;6.00;;;;;21.26;84.95;100283.13;6244818;22;45379;-66
2023/09/18 07:56:01;;;;;;;;;11.00;8.00;;;;;21.25;84.63;100273.25;6216903;22;45355;-67
2023/09/18 07:58:38;;;;;;;;;6.25;6.25;;;;;21.18;84.53;100261.22;6217576;22;46043;-67
2023/09/18 08:01:16;;;;;;;;;8.00;7.25;;;;;21.30;84.73;100279.19;6216980;22;46465;-68
2023/09/18 08:03:47;;;;;;;;;6.00;6.00;;;;;21.52;84.47;100312.66;6215988;22;46088;-67
2023/09/18 08:06:14;;;;;;;;;7.25;6.25;;;;;21.39;84.01;100280.25;6218080;22;45282;-68
2023/09/18 08:08:40;;;;;;;;;6.25;5.75;;;;;21.39;84.55;100269.41;6245518;22;45402;-67
2023/09/18 08:11:09;;;;;;;;;7.00;7.00;;;;;21.34;83.65;100258.91;6216395;22;46726;-67
2023/09/18 08:13:35;;;;;;;;;4.25;4.00;;;;;21.44;83.57;100278.84;6244275;22;45232;-67
2023/09/18 08:16:00;;;;;;;;;5.75;5.75;;;;;21.40;84.02;100266.56;6216086;22;45298;-67
2023/09/18 08:18:26;;;;;;;;;7.75;6.00;;;;;21.44;83.29;100259.84;6217361;22;45249;-66
2023/09/18 08:20:57;;;;;;;;;6.00;5.00;;;;;21.50;82.72;100273.91;6244642;22;46243;-66
2023/09/18 08:23:23;;;;;;;;;6.00;6.00;;;;;21.73;82.61;100299.97;6213377;22;45519;-66
2023/09/18 08:25:56;;;;;;;;;6.25;5.00;;;;;21.68;82.74;100291.34;6239676;22;45287;-66
2023/09/18 08:28:38;;;;;;;;;5.75;5.50;;;;;21.81;82.19;100308.31;6242037;22;45546;-67
2023/09/18 08:31:19;;;;;;;;;6.00;5.50;;;;;21.65;82.39;100284.34;6213886;22;47457;-67
2023/09/18 08:33:46;;;;;;;;;7.50;6.50;;;;;21.86;82.37;100299.75;6243986;22;45490;-68
2023/09/18 08:36:12;;;;;;;;;7.00;7.00;;;;;21.71;82.21;100277.50;6217852;22;45281;-67
2023/09/18 08:38:38;;;;;;;;;4.00;4.00;;;;;21.55;81.60;100249.94;6215834;22;45457;-67
2023/09/18 08:41:16;;;;;;;;;;;;;;;;;;;;;
2023/09/18 08:43:43;;;;;;;;;6.75;6.75;;;;;21.65;80.85;100253.59;6242771;22;73423;-67
2023/09/18 08:46:09;;;;;;;;;4.50;4.50;;;;;21.83;80.69;100294.59;6190875;22;45494;-67
2023/09/18 08:48:36;;;;;;;;;6.00;5.50;;;;;21.78;79.77;100280.56;6214614;22;45903;-67
2023/09/18 08:51:04;;;;;;;;;6.75;6.25;;;;;22.02;80.64;100318.31;6217070;22;46332;-67
2023/09/18 08:53:34;;;;;;;;;4.00;4.00;;;;;21.83;80.28;100279.19;6215827;22;45381;-67
2023/09/18 08:56:03;;;;;;;;;6.00;5.00;;;;;21.90;79.71;100297.63;6244261;22;45280;-67
2023/09/18 08:58:35;;;;;;;;;6.00;6.00;;;;;21.88;79.97;100288.75;6217367;22;45419;-67
2023/09/18 09:01:05;;;;;;;;;6.25;5.25;;;;;21.63;79.71;100242.88;6239082;22;45701;-67
2023/09/18 09:03:41;;;;;;;;;;;;;;;;;;;;;
2023/09/18 09:06:10;;;;;;;;;6.00;6.00;;;;;22.08;79.83;100319.63;6243693;22;68813;-67
2023/09/18 09:08:36;;;;;;;;;5.50;4.75;;;;;21.96;80.52;100295.25;6217842;22;45438;-67
2023/09/18 09:11:03;;;;;;;;;5.25;4.25;;;;;21.83;80.24;100273.75;6218808;22;46186;-68
2023/09/18 09:13:39;;;;;;;;;8.00;5.00;;;;;21.76;79.17;100249.94;6217267;22;45399;-67
2023/09/18 09:16:07;;;;;;;;;6.00;5.50;;;;;22.13;79.42;100304.63;6244446;22;45471;-67
2023/09/18 09:18:45;;;;;;;;;;;;;;;;;;;;;
2023/09/18 09:21:10;;;;;;;;;7.75;5.25;;;;;21.92;79.45;100249.44;6240576;22;76640;-67
2023/09/18 09:23:52;;;;;;;;;9.00;6.00;;;;;22.11;79.69;100284.88;6218524;22;45223;-67
2023/09/18 09:26:21;;;;;;;;;5.75;4.75;;;;;22.09;79.63;100272.44;6218925;22;45404;-67
2023/09/18 09:28:50;;;;;;;;;5.00;5.00;;;;;22.32;79.24;100303.03;6245401;22;45481;-67
2023/09/18 09:31:30;;;;;;;;;6.50;5.00;;;;;22.09;79.26;100264.28;6243491;22;45895;-67
2023/09/18 09:34:05;;;;;;;;;5.50;5.50;;;;;22.29;80.09;100287.88;6218311;22;45470;-67
2023/09/18 09:36:33;;;;;;;;;6.50;6.50;;;;;22.33;79.51;100292.03;6218617;22;45276;-67
2023/09/18 09:39:02;;;;;;;;;6.25;6.00;;;;;22.42;78.82;100292.19;6217588;22;45292;-67
2023/09/18 09:41:41;;;;;;;;;;;;;;;;;;;;;
2023/09/18 09:44:08;;;;;;;;;5.25;5.25;;;;;22.55;77.88;100318.19;6244116;22;73445;-67
2023/09/18 09:46:48;;;;;;;;;5.00;4.75;;;;;22.59;77.47;100321.47;6246821;22;45391;-67
2023/09/18 09:49:26;;;;;;;;;;;;;;;;;;;;;
2023/09/18 09:51:54;;;;;;;;;6.00;5.50;;;;;22.28;76.48;100268.94;6244938;22;75274;-67
2023/09/18 09:54:38;;;;;;;;;5.00;5.00;;;;;22.67;76.35;100332.53;6218226;22;45532;-68
2023/09/18 09:57:04;;;;;;;;;5.00;4.00;;;;;22.35;76.14;100270.13;6247263;22;45335;-67
2023/09/18 09:59:31;;;;;;;;;4.50;4.00;;;;;22.43;75.76;100283.91;6218512;22;45317;-67
2023/09/18 10:02:02;;;;;;;;;4.50;4.50;;;;;22.76;75.75;100337.13;6218125;22;47274;-67
2023/09/18 10:04:48;;;;;;;;;4.25;4.25;;;;;22.58;75.50;100300.72;6246205;22;45402;-67
2023/09/18 10:07:23;;;;;;;;;4.00;4.00;;;;;22.63;75.73;100305.75;6246702;22;45472;-67
2023/09/18 10:09:51;;;;;;;;;4.25;3.00;;;;;22.80;75.33;100332.28;6245222;22;45334;-68
2023/09/18 10:12:20;;;;;;;;;5.25;4.25;;;;;22.86;74.33;100336.31;6218723;22;48302;-68
2023/09/18 10:14:53;;;;;;;;;3.00;3.00;;;;;22.75;74.89;100318.22;6244681;22;45308;-68
2023/09/18 10:17:22;;;;;;;;;6.75;5.00;;;;;22.78;74.24;100303.50;6217396;22;45433;-68
2023/09/18 10:22:48;;;;;;;;;;;;;;;;;;;;;
2023/09/18 10:25:20;;;;;;;;;5.50;5.50;;;;;23.05;74.43;100325.44;6244928;22;72111;-67
2023/09/18 10:28:12;;;;;;;;;;;;;;;;;;;;;
2023/09/18 10:30:51;;;;;;;;;4.75;4.00;;;;;23.03;73.49;100318.44;6243860;22;71699;-66
2023/09/18 10:33:17;;;;;;;;;5.00;4.00;;;;;22.88;73.76;100280.72;6244023;22;45558;-67
2023/09/18 10:35:43;;;;;;;;;3.00;3.00;;;;;22.98;73.14;100291.63;6218551;22;45383;-70
2023/09/18 10:38:09;;;;;;;;;5.00;5.00;;;;;23.25;73.03;100337.25;6245602;22;45481;-70
2023/09/18 10:40:37;;;;;;;;;4.00;3.75;;;;;23.03;72.61;100283.91;6245592;22;45315;-69
2023/09/18 10:43:04;;;;;;;;;4.00;3.75;;;;;23.09;72.15;100286.09;6245536;22;45360;-71
2023/09/18 10:45:31;;;;;;;;;5.00;3.50;;;;;23.07;72.10;100288.13;6219403;22;45422;-71
2023/09/18 10:47:57;;;;;;;;;5.00;4.75;;;;;23.13;71.88;100301.13;6246200;22;45386;-71
2023/09/18 10:50:27;;;;;;;;;2.75;2.75;;;;;23.41;71.52;100344.88;6218246;22;45439;-71
2023/09/18 10:52:53;;;;;;;;;4.00;3.75;;;;;23.34;71.05;100310.19;6244500;22;45539;-70
2023/09/18 10:55:19;;;;;;;;;3.75;3.75;;;;;23.53;71.71;100334.72;6216746;22;45389;-70
2023/09/18 10:57:55;;;;;;;;;5.00;5.00;;;;;23.50;71.27;100326.81;6246339;22;45401;-70
2023/09/18 11:00:25;;;;;;;;;4.00;4.00;;;;;23.56;70.92;100328.97;6244779;22;45431;-69
2023/09/18 11:03:14;;;;;;;;;5.00;3.75;;;;;23.63;70.10;100331.97;6240094;22;45556;-70
2023/09/18 11:05:39;;;;;;;;;5.50;3.00;;;;;23.61;69.97;100340.28;6240055;22;45609;-71
2023/09/18 11:08:27;;;;;;;;;3.00;3.00;;;;;23.54;70.21;100333.72;6239045;22;45481;-70
2023/09/18 11:11:09;;;;;;;;;3.75;3.50;;;;;23.56;70.58;100339.03;6214148;22;45465;-71
2023/09/18 11:13:37;;;;;;;;;5.00;3.00;;;;;23.42;70.13;100313.06;6240043;22;46395;-71
2023/09/18 11:16:35;;;;;;;;;4.00;4.00;;;;;23.53;69.67;100326.53;6238970;22;45364;-68
2023/09/18 11:19:00;;;;;;;;;4.00;3.00;;;;;23.65;69.57;100339.00;6241209;22;45399;-69
2023/09/18 11:21:25;;;;;;;;;2.75;2.75;;;;;23.66;69.78;100348.91;6240883;22;45416;-68
2023/09/18 11:24:04;;;;;;;;;4.50;3.00;;;;;23.48;69.43;100307.03;6241193;22;45382;-70
2023/09/18 11:26:33;;;;;;;;;4.50;4.00;;;;;23.55;69.45;100321.78;6238342;22;45527;-71
2023/09/18 11:29:08;;;;;;;;;3.50;3.50;;;;;23.66;68.59;100329.81;6241512;22;45362;-69
2023/09/18 11:31:46;;;;;;;;;3.75;2.75;;;;;23.72;68.93;100335.69;6241451;22;45376;-69
2023/09/18 11:34:15;;;;;;;;;6.00;4.00;;;;;23.54;68.92;100303.75;6241488;22;46665;-67
2023/09/18 11:36:41;;;;;;;;;3.25;3.25;;;;;23.71;69.15;100313.06;6240824;22;45418;-70
2023/09/18 11:39:09;;;;;;;;;3.75;3.50;;;;;23.73;68.62;100323.81;6241442;22;45407;-68